KBGM

Greater Binghamton Airport

Airport
ICAO code
KBGM
IATA Code
BGM
Summary
ICAO Region
NAM
ICAO Territory
Location

Binghamton, New York,

Serving
Binghamton
Elevation
1636 ft
Coordinates
42° 12' 29" N , 75° 58' 46" W
KCC
Airport WX
Cumulonimbus
Metar
KBGM 192253Z 22007KT 10SM CLR 29/21 A3032 RMK AO2 SLP252 T02940206

Description

Greater Binghamton Airport is a public use airport located 13 km north of the central business district of Binghamton, a city in Broome County, New York.

Climatology

Humid Continental climate (Köppen climate classification Dfb) - Variable weather patterns and a large seasonal temperature variance. Summers are often warm and humid with frequent thunderstorms and winters can be very cold with frequent snowfall and persistent snow cover.

Airport map

Aerial View

SKYbrary Partners:

Safety knowledge contributed by: